Aeroporto :
LOGIN :

Iscrizione | Disclaimer

   EN    FR    IT 

 










Sommario :    VFR   VFR Marginale   IFR   IFR Intensivo   IFR Molto Intensivo
Visibilità : 
Base nubi : 
>= 8 km
>= 3000ft
5 / 8 km
1000 / 3000 ft
1500m / 5 km
500 / 1000 ft
800 / 1500m
200 / 500 ft
< 800m
< 200 ft
Simboli :   Temporali  Nebbia  Neve Forte  Precipitazioni Forti  Vento > 20 kt
SIGMETs :   Varie  Temporali  Ghiacco  Turbolenza  Onda orograficha  Ceneri Vulcaniche







- Altitudine del aeroporto : 138 ft
- Codice IATA : BIO


LEBB - Bilbao

ULTIMO METAR :
  • 191130Z 10005KT 020V150 CAVOK 29/16 Q1014 NOSIG

METARs OBSOLETI :
  • 191100Z 11006KT 050V170 CAVOK 28/15 Q1015 NOSIG
  • 191030Z VRB05KT CAVOK 27/14 Q1015 NOSIG
  • 191000Z 13006KT 090V170 CAVOK 27/14 Q1016 NOSIG
  • 190930Z 12007KT 070V170 CAVOK 25/13 Q1016 NOSIG
  • 190900Z 12008KT 100V160 CAVOK 24/13 Q1016 NOSIG

TAF TAF LEBB
Valido dal 19 a 12 ore il 20 a 12 ore UTC


191100Z 1912/2012 VRB06KT CAVOK TX29/1915Z TN17/2005Z
PROB40
TEMPO 1912/1918 05010KT
BECMG 1915/1918 31010KT
PROB30
TEMPO 1923/2005 VRB05KT 4500 -RA -SHRA BKN014 SCT030TCU
Nessun NOTAM noto per questo aeroporto.



MetMap, La meteo Aeronautica in un colpo d'occhio ! - Copyright ORBIFLY Dicembre 2007 - Disclaimer

ORBIFLY MET'MAP TEAM :

Programmazione e sviluppo : Alexandra Zaïnal
Concezione e sviluppo : Baudouin d'Aumeries
Co-Programmazione e sviluppo : Marc-Olivier Méhu
Supporto tecnico e logistico : Manuel Goepfert
Aiuto per la traduzione : Arnaldo La Scala

Contatto : metmap@orbifly.com




FONTI E CREDITI :

   NOAA